sensor_id;sensor_type;location;lat;lon;timestamp;temperature;humidity
1379;DHT22;683;48.738;9.226;2023-08-12T00:01:11;18.80;99.90
1379;DHT22;683;48.738;9.226;2023-08-12T00:03:38;18.80;99.90
1379;DHT22;683;48.738;9.226;2023-08-12T00:06:05;18.80;99.90
1379;DHT22;683;48.738;9.226;2023-08-12T00:08:32;18.70;99.90
1379;DHT22;683;48.738;9.226;2023-08-12T00:11:00;18.80;99.90
1379;DHT22;683;48.738;9.226;2023-08-12T00:13:28;18.80;99.90
1379;DHT22;683;48.738;9.226;2023-08-12T00:15:55;18.80;99.90
1379;DHT22;683;48.738;9.226;2023-08-12T00:18:22;18.80;99.90
1379;DHT22;683;48.738;9.226;2023-08-12T00:20:49;18.80;99.90
1379;DHT22;683;48.738;9.226;2023-08-12T00:23:17;18.80;99.90
1379;DHT22;683;48.738;9.226;2023-08-12T00:25:44;18.80;99.90
1379;DHT22;683;48.738;9.226;2023-08-12T00:28:11;18.80;99.90
1379;DHT22;683;48.738;9.226;2023-08-12T00:30:40;18.70;99.90
1379;DHT22;683;48.738;9.226;2023-08-12T00:33:08;18.70;99.90
1379;DHT22;683;48.738;9.226;2023-08-12T00:35:35;18.70;99.90
1379;DHT22;683;48.738;9.226;2023-08-12T00:38:03;18.60;99.90
1379;DHT22;683;48.738;9.226;2023-08-12T00:40:30;18.60;99.90
1379;DHT22;683;48.738;9.226;2023-08-12T00:42:57;18.60;99.90
1379;DHT22;683;48.738;9.226;2023-08-12T00:45:24;18.60;99.90
1379;DHT22;683;48.738;9.226;2023-08-12T00:47:56;18.50;99.90
1379;DHT22;683;48.738;9.226;2023-08-12T00:50:24;18.50;99.90
1379;DHT22;683;48.738;9.226;2023-08-12T00:52:52;18.50;99.90
1379;DHT22;683;48.738;9.226;2023-08-12T00:55:22;18.50;99.90
1379;DHT22;683;48.738;9.226;2023-08-12T00:57:50;18.40;99.90
1379;DHT22;683;48.738;9.226;2023-08-12T01:00:19;18.30;99.90
1379;DHT22;683;48.738;9.226;2023-08-12T01:02:47;18.30;99.90
1379;DHT22;683;48.738;9.226;2023-08-12T01:05:17;18.20;99.90
1379;DHT22;683;48.738;9.226;2023-08-12T01:07:45;18.20;99.90
1379;DHT22;683;48.738;9.226;2023-08-12T01:10:14;18.20;99.90
1379;DHT22;683;48.738;9.226;2023-08-12T01:12:47;18.10;99.90
1379;DHT22;683;48.738;9.226;2023-08-12T01:15:18;18.10;99.90
1379;DHT22;683;48.738;9.226;2023-08-12T01:17:49;18.10;99.90
1379;DHT22;683;48.738;9.226;2023-08-12T01:20:20;18.10;99.90
1379;DHT22;683;48.738;9.226;2023-08-12T01:22:56;18.00;99.90
1379;DHT22;683;48.738;9.226;2023-08-12T01:25:25;18.00;99.90
1379;DHT22;683;48.738;9.226;2023-08-12T01:27:52;18.00;99.90
1379;DHT22;683;48.738;9.226;2023-08-12T01:30:20;17.90;99.90
1379;DHT22;683;48.738;9.226;2023-08-12T01:32:54;17.90;99.90
1379;DHT22;683;48.738;9.226;2023-08-12T01:35:28;17.90;99.90
1379;DHT22;683;48.738;9.226;2023-08-12T01:37:58;17.90;99.90
1379;DHT22;683;48.738;9.226;2023-08-12T01:40:28;17.80;99.90
1379;DHT22;683;48.738;9.226;2023-08-12T01:42:56;17.80;99.90
1379;DHT22;683;48.738;9.226;2023-08-12T01:45:23;17.80;99.90
1379;DHT22;683;48.738;9.226;2023-08-12T01:47:50;17.70;99.90
1379;DHT22;683;48.738;9.226;2023-08-12T01:50:17;17.70;99.90
1379;DHT22;683;48.738;9.226;2023-08-12T01:52:47;17.70;99.90
1379;DHT22;683;48.738;9.226;2023-08-12T01:55:14;17.80;99.90
1379;DHT22;683;48.738;9.226;2023-08-12T01:57:43;17.80;99.90
1379;DHT22;683;48.738;9.226;2023-08-12T02:00:11;17.80;99.90
1379;DHT22;683;48.738;9.226;2023-08-12T02:02:44;17.80;99.90
1379;DHT22;683;48.738;9.226;2023-08-12T02:05:13;17.80;99.90
1379;DHT22;683;48.738;9.226;2023-08-12T02:07:40;17.90;99.90
1379;DHT22;683;48.738;9.226;2023-08-12T02:10:09;17.90;99.90
1379;DHT22;683;48.738;9.226;2023-08-12T02:12:37;18.00;99.90
1379;DHT22;683;48.738;9.226;2023-08-12T02:15:07;18.10;99.90
1379;DHT22;683;48.738;9.226;2023-08-12T02:17:35;18.10;99.90
1379;DHT22;683;48.738;9.226;2023-08-12T02:20:02;18.10;99.90
1379;DHT22;683;48.738;9.226;2023-08-12T02:22:30;18.20;99.90
1379;DHT22;683;48.738;9.226;2023-08-12T02:24:57;18.20;99.90
1379;DHT22;683;48.738;9.226;2023-08-12T02:27:24;18.20;99.90
1379;DHT22;683;48.738;9.226;2023-08-12T02:29:51;18.30;99.90
1379;DHT22;683;48.738;9.226;2023-08-12T02:32:20;18.30;99.90
1379;DHT22;683;48.738;9.226;2023-08-12T02:34:47;18.40;99.90
1379;DHT22;683;48.738;9.226;2023-08-12T02:37:14;18.40;99.90
1379;DHT22;683;48.738;9.226;2023-08-12T02:39:42;18.50;99.90
1379;DHT22;683;48.738;9.226;2023-08-12T02:42:09;18.50;99.90
1379;DHT22;683;48.738;9.226;2023-08-12T02:44:36;18.50;99.90
1379;DHT22;683;48.738;9.226;2023-08-12T02:47:04;18.50;99.90
1379;DHT22;683;48.738;9.226;2023-08-12T02:49:32;18.50;99.90
1379;DHT22;683;48.738;9.226;2023-08-12T02:51:59;18.50;99.90
1379;DHT22;683;48.738;9.226;2023-08-12T02:54:26;18.40;99.90
1379;DHT22;683;48.738;9.226;2023-08-12T02:56:53;18.40;99.90
1379;DHT22;683;48.738;9.226;2023-08-12T02:59:20;18.40;99.90
1379;DHT22;683;48.738;9.226;2023-08-12T03:01:48;18.40;99.90
1379;DHT22;683;48.738;9.226;2023-08-12T03:04:15;18.40;99.90
1379;DHT22;683;48.738;9.226;2023-08-12T03:06:43;18.40;99.90
1379;DHT22;683;48.738;9.226;2023-08-12T03:09:10;18.40;99.90
1379;DHT22;683;48.738;9.226;2023-08-12T03:11:37;18.40;99.90
1379;DHT22;683;48.738;9.226;2023-08-12T03:14:08;18.50;99.90
1379;DHT22;683;48.738;9.226;2023-08-12T03:16:35;18.50;99.90
1379;DHT22;683;48.738;9.226;2023-08-12T03:19:02;18.50;99.90
1379;DHT22;683;48.738;9.226;2023-08-12T03:21:30;18.50;99.90
1379;DHT22;683;48.738;9.226;2023-08-12T03:23:58;18.50;99.90
1379;DHT22;683;48.738;9.226;2023-08-12T03:26:25;18.50;99.90
1379;DHT22;683;48.738;9.226;2023-08-12T03:28:55;18.50;99.90
1379;DHT22;683;48.738;9.226;2023-08-12T03:31:22;18.50;99.90
1379;DHT22;683;48.738;9.226;2023-08-12T03:33:51;18.50;99.90
1379;DHT22;683;48.738;9.226;2023-08-12T03:36:18;18.50;99.90
1379;DHT22;683;48.738;9.226;2023-08-12T03:38:46;18.50;99.90
1379;DHT22;683;48.738;9.226;2023-08-12T03:41:18;18.50;99.90
1379;DHT22;683;48.738;9.226;2023-08-12T03:43:46;18.50;99.90
1379;DHT22;683;48.738;9.226;2023-08-12T03:46:16;18.50;99.90
1379;DHT22;683;48.738;9.226;2023-08-12T03:48:43;18.60;99.90
1379;DHT22;683;48.738;9.226;2023-08-12T03:51:12;18.60;99.90
1379;DHT22;683;48.738;9.226;2023-08-12T03:53:39;18.60;99.90
1379;DHT22;683;48.738;9.226;2023-08-12T03:56:06;18.60;99.90
1379;DHT22;683;48.738;9.226;2023-08-12T03:58:34;18.60;99.90
1379;DHT22;683;48.738;9.226;2023-08-12T04:01:02;18.60;99.90
1379;DHT22;683;48.738;9.226;2023-08-12T04:03:29;18.60;99.90
1379;DHT22;683;48.738;9.226;2023-08-12T04:05:56;18.60;99.90
1379;DHT22;683;48.738;9.226;2023-08-12T04:08:23;18.60;99.90
1379;DHT22;683;48.738;9.226;2023-08-12T04:10:51;18.60;99.90
1379;DHT22;683;48.738;9.226;2023-08-12T04:13:18;18.70;99.90
1379;DHT22;683;48.738;9.226;2023-08-12T04:15:50;18.70;99.90
1379;DHT22;683;48.738;9.226;2023-08-12T04:18:19;18.70;99.90
1379;DHT22;683;48.738;9.226;2023-08-12T04:20:47;18.80;99.90
1379;DHT22;683;48.738;9.226;2023-08-12T04:23:15;18.70;99.90
1379;DHT22;683;48.738;9.226;2023-08-12T04:25:43;18.80;99.90
1379;DHT22;683;48.738;9.226;2023-08-12T04:28:12;18.80;99.90
1379;DHT22;683;48.738;9.226;2023-08-12T04:30:43;18.80;99.90
1379;DHT22;683;48.738;9.226;2023-08-12T04:33:12;18.80;99.90
1379;DHT22;683;48.738;9.226;2023-08-12T04:35:40;18.80;99.90
1379;DHT22;683;48.738;9.226;2023-08-12T04:38:07;18.90;99.90
1379;DHT22;683;48.738;9.226;2023-08-12T04:40:38;18.90;99.90
1379;DHT22;683;48.738;9.226;2023-08-12T04:43:07;18.90;99.90
1379;DHT22;683;48.738;9.226;2023-08-12T04:45:35;18.90;99.90
1379;DHT22;683;48.738;9.226;2023-08-12T04:48:06;18.90;99.90
1379;DHT22;683;48.738;9.226;2023-08-12T04:50:37;18.90;99.90
1379;DHT22;683;48.738;9.226;2023-08-12T04:53:05;19.00;99.90
1379;DHT22;683;48.738;9.226;2023-08-12T04:55:32;19.10;99.90
1379;DHT22;683;48.738;9.226;2023-08-12T04:58:01;19.10;99.90
1379;DHT22;683;48.738;9.226;2023-08-12T05:00:28;19.20;99.90
1379;DHT22;683;48.738;9.226;2023-08-12T05:02:56;19.20;99.90
1379;DHT22;683;48.738;9.226;2023-08-12T05:05:25;19.20;99.90
1379;DHT22;683;48.738;9.226;2023-08-12T05:07:54;19.20;99.90
1379;DHT22;683;48.738;9.226;2023-08-12T05:10:21;19.20;99.90
1379;DHT22;683;48.738;9.226;2023-08-12T05:12:50;19.20;99.90
1379;DHT22;683;48.738;9.226;2023-08-12T05:15:20;19.30;99.90
1379;DHT22;683;48.738;9.226;2023-08-12T05:17:48;19.40;99.90
1379;DHT22;683;48.738;9.226;2023-08-12T05:20:19;19.50;99.90
1379;DHT22;683;48.738;9.226;2023-08-12T05:22:46;19.60;99.90
1379;DHT22;683;48.738;9.226;2023-08-12T05:25:15;19.80;99.90
1379;DHT22;683;48.738;9.226;2023-08-12T05:27:42;19.90;99.90
1379;DHT22;683;48.738;9.226;2023-08-12T05:30:10;20.00;99.90
1379;DHT22;683;48.738;9.226;2023-08-12T05:32:39;20.10;99.90
1379;DHT22;683;48.738;9.226;2023-08-12T05:35:06;20.20;99.90
1379;DHT22;683;48.738;9.226;2023-08-12T05:37:34;20.30;99.90
1379;DHT22;683;48.738;9.226;2023-08-12T05:40:02;20.30;99.90
1379;DHT22;683;48.738;9.226;2023-08-12T05:42:35;20.40;99.90
1379;DHT22;683;48.738;9.226;2023-08-12T05:45:02;20.50;99.90
1379;DHT22;683;48.738;9.226;2023-08-12T05:47:31;20.40;99.90
1379;DHT22;683;48.738;9.226;2023-08-12T05:49:58;20.40;99.90
1379;DHT22;683;48.738;9.226;2023-08-12T05:52:26;20.40;99.90
1379;DHT22;683;48.738;9.226;2023-08-12T05:54:53;20.40;99.90
1379;DHT22;683;48.738;9.226;2023-08-12T05:57:20;20.50;99.90
1379;DHT22;683;48.738;9.226;2023-08-12T05:59:49;20.60;99.90
1379;DHT22;683;48.738;9.226;2023-08-12T06:02:16;20.70;99.90
1379;DHT22;683;48.738;9.226;2023-08-12T06:04:43;20.70;99.90
1379;DHT22;683;48.738;9.226;2023-08-12T06:07:10;20.80;99.90
1379;DHT22;683;48.738;9.226;2023-08-12T06:09:37;20.80;99.90
1379;DHT22;683;48.738;9.226;2023-08-12T06:12:05;20.80;99.90
1379;DHT22;683;48.738;9.226;2023-08-12T06:14:32;20.80;99.90
1379;DHT22;683;48.738;9.226;2023-08-12T06:17:01;20.80;99.90
1379;DHT22;683;48.738;9.226;2023-08-12T06:19:28;20.80;99.90
1379;DHT22;683;48.738;9.226;2023-08-12T06:21:55;20.80;99.90
1379;DHT22;683;48.738;9.226;2023-08-12T06:24:23;20.80;99.90
1379;DHT22;683;48.738;9.226;2023-08-12T06:26:50;20.90;99.90
1379;DHT22;683;48.738;9.226;2023-08-12T06:29:17;21.00;99.90
1379;DHT22;683;48.738;9.226;2023-08-12T06:31:44;21.00;99.90
1379;DHT22;683;48.738;9.226;2023-08-12T06:34:13;21.00;99.90
1379;DHT22;683;48.738;9.226;2023-08-12T06:36:40;21.00;99.90
1379;DHT22;683;48.738;9.226;2023-08-12T06:39:07;21.00;99.90
1379;DHT22;683;48.738;9.226;2023-08-12T06:41:34;21.00;99.90
1379;DHT22;683;48.738;9.226;2023-08-12T06:44:01;21.00;99.90
1379;DHT22;683;48.738;9.226;2023-08-12T06:46:29;21.00;99.90
1379;DHT22;683;48.738;9.226;2023-08-12T06:48:58;21.00;99.90
1379;DHT22;683;48.738;9.226;2023-08-12T06:51:26;21.00;99.90
1379;DHT22;683;48.738;9.226;2023-08-12T06:53:53;21.10;99.90
1379;DHT22;683;48.738;9.226;2023-08-12T06:56:21;21.30;99.90
1379;DHT22;683;48.738;9.226;2023-08-12T06:58:48;21.70;99.90
1379;DHT22;683;48.738;9.226;2023-08-12T07:01:15;22.20;99.90
1379;DHT22;683;48.738;9.226;2023-08-12T07:03:42;22.70;99.90
1379;DHT22;683;48.738;9.226;2023-08-12T07:06:09;23.20;99.90
1379;DHT22;683;48.738;9.226;2023-08-12T07:08:37;23.60;99.90
1379;DHT22;683;48.738;9.226;2023-08-12T07:11:07;23.90;99.90
1379;DHT22;683;48.738;9.226;2023-08-12T07:13:34;24.10;99.90
1379;DHT22;683;48.738;9.226;2023-08-12T07:16:01;24.20;99.90
1379;DHT22;683;48.738;9.226;2023-08-12T07:18:28;24.40;99.90
1379;DHT22;683;48.738;9.226;2023-08-12T07:20:57;24.70;99.90
1379;DHT22;683;48.738;9.226;2023-08-12T07:23:28;24.80;97.40
1379;DHT22;683;48.738;9.226;2023-08-12T07:25:56;24.90;96.40
1379;DHT22;683;48.738;9.226;2023-08-12T07:28:23;25.10;95.00
1379;DHT22;683;48.738;9.226;2023-08-12T07:30:50;25.10;94.70
1379;DHT22;683;48.738;9.226;2023-08-12T07:33:19;25.10;94.10
1379;DHT22;683;48.738;9.226;2023-08-12T07:35:48;25.20;94.10
1379;DHT22;683;48.738;9.226;2023-08-12T07:38:16;25.10;94.40
1379;DHT22;683;48.738;9.226;2023-08-12T07:40:43;25.20;94.80
1379;DHT22;683;48.738;9.226;2023-08-12T07:43:11;25.30;94.40
1379;DHT22;683;48.738;9.226;2023-08-12T07:45:38;25.40;93.40
1379;DHT22;683;48.738;9.226;2023-08-12T07:48:06;25.40;93.40
1379;DHT22;683;48.738;9.226;2023-08-12T07:50:34;25.50;93.00
1379;DHT22;683;48.738;9.226;2023-08-12T07:53:02;25.40;93.50
1379;DHT22;683;48.738;9.226;2023-08-12T07:55:29;25.50;93.60
1379;DHT22;683;48.738;9.226;2023-08-12T07:57:56;25.60;92.80
1379;DHT22;683;48.738;9.226;2023-08-12T08:00:25;25.80;91.50
1379;DHT22;683;48.738;9.226;2023-08-12T08:02:52;25.90;91.80
1379;DHT22;683;48.738;9.226;2023-08-12T08:05:19;26.10;91.50
1379;DHT22;683;48.738;9.226;2023-08-12T08:07:46;26.20;90.80
1379;DHT22;683;48.738;9.226;2023-08-12T08:10:13;26.20;90.60
1379;DHT22;683;48.738;9.226;2023-08-12T08:12:41;26.30;90.10
1379;DHT22;683;48.738;9.226;2023-08-12T08:15:08;26.50;90.10
1379;DHT22;683;48.738;9.226;2023-08-12T08:17:37;26.70;88.60
1379;DHT22;683;48.738;9.226;2023-08-12T08:20:05;27.00;86.30
1379;DHT22;683;48.738;9.226;2023-08-12T08:22:33;27.10;84.80
1379;DHT22;683;48.738;9.226;2023-08-12T08:25:00;27.10;83.30
1379;DHT22;683;48.738;9.226;2023-08-12T08:27:27;27.10;82.90
1379;DHT22;683;48.738;9.226;2023-08-12T08:29:54;27.00;85.10
1379;DHT22;683;48.738;9.226;2023-08-12T08:32:22;26.80;84.20
1379;DHT22;683;48.738;9.226;2023-08-12T08:34:50;26.90;83.10
1379;DHT22;683;48.738;9.226;2023-08-12T08:37:17;27.00;83.70
1379;DHT22;683;48.738;9.226;2023-08-12T08:39:44;27.30;83.10
1379;DHT22;683;48.738;9.226;2023-08-12T08:42:12;27.60;81.50
1379;DHT22;683;48.738;9.226;2023-08-12T08:44:40;27.90;79.80
1379;DHT22;683;48.738;9.226;2023-08-12T08:47:08;28.10;77.60
1379;DHT22;683;48.738;9.226;2023-08-12T08:49:36;28.20;78.10
1379;DHT22;683;48.738;9.226;2023-08-12T08:52:05;28.40;76.30
1379;DHT22;683;48.738;9.226;2023-08-12T08:54:32;28.50;75.80
1379;DHT22;683;48.738;9.226;2023-08-12T08:56:59;28.40;76.40
1379;DHT22;683;48.738;9.226;2023-08-12T08:59:27;28.40;74.60
1379;DHT22;683;48.738;9.226;2023-08-12T09:01:55;28.40;74.50
1379;DHT22;683;48.738;9.226;2023-08-12T09:04:23;28.50;74.90
1379;DHT22;683;48.738;9.226;2023-08-12T09:06:53;28.50;75.30
1379;DHT22;683;48.738;9.226;2023-08-12T09:09:23;28.70;74.80
1379;DHT22;683;48.738;9.226;2023-08-12T09:11:51;28.80;73.10
1379;DHT22;683;48.738;9.226;2023-08-12T09:14:19;28.80;72.20
1379;DHT22;683;48.738;9.226;2023-08-12T09:16:46;29.00;71.20
1379;DHT22;683;48.738;9.226;2023-08-12T09:19:14;29.20;70.00
1379;DHT22;683;48.738;9.226;2023-08-12T09:21:42;29.20;67.40
1379;DHT22;683;48.738;9.226;2023-08-12T09:24:09;29.30;67.60
1379;DHT22;683;48.738;9.226;2023-08-12T09:26:38;29.60;68.60
1379;DHT22;683;48.738;9.226;2023-08-12T09:29:05;29.70;68.20
1379;DHT22;683;48.738;9.226;2023-08-12T09:31:32;29.80;66.60
1379;DHT22;683;48.738;9.226;2023-08-12T09:34:02;29.60;67.50
1379;DHT22;683;48.738;9.226;2023-08-12T09:36:33;29.70;68.30
1379;DHT22;683;48.738;9.226;2023-08-12T09:39:06;30.00;67.60
1379;DHT22;683;48.738;9.226;2023-08-12T09:41:35;30.50;63.00
1379;DHT22;683;48.738;9.226;2023-08-12T09:44:04;30.90;62.00
1379;DHT22;683;48.738;9.226;2023-08-12T09:46:33;31.20;60.50
1379;DHT22;683;48.738;9.226;2023-08-12T09:49:00;31.20;58.70
1379;DHT22;683;48.738;9.226;2023-08-12T09:51:27;31.10;59.00
1379;DHT22;683;48.738;9.226;2023-08-12T09:54:00;31.40;59.30
1379;DHT22;683;48.738;9.226;2023-08-12T09:56:32;31.80;56.80
1379;DHT22;683;48.738;9.226;2023-08-12T09:59:02;31.80;57.70
1379;DHT22;683;48.738;9.226;2023-08-12T10:01:32;31.80;56.80
1379;DHT22;683;48.738;9.226;2023-08-12T10:04:01;31.70;56.90
1379;DHT22;683;48.738;9.226;2023-08-12T10:06:29;31.50;56.90
1379;DHT22;683;48.738;9.226;2023-08-12T10:08:57;31.20;57.30
1379;DHT22;683;48.738;9.226;2023-08-12T10:11:25;31.00;57.60
1379;DHT22;683;48.738;9.226;2023-08-12T10:13:53;31.00;58.30
1379;DHT22;683;48.738;9.226;2023-08-12T10:16:23;31.20;58.30
1379;DHT22;683;48.738;9.226;2023-08-12T10:18:50;31.40;58.20
1379;DHT22;683;48.738;9.226;2023-08-12T10:21:18;31.70;56.80
1379;DHT22;683;48.738;9.226;2023-08-12T10:23:46;31.60;57.20
1379;DHT22;683;48.738;9.226;2023-08-12T10:26:14;31.50;57.80
1379;DHT22;683;48.738;9.226;2023-08-12T10:28:42;31.50;58.10
1379;DHT22;683;48.738;9.226;2023-08-12T10:31:11;31.70;58.10
1379;DHT22;683;48.738;9.226;2023-08-12T10:33:43;32.00;57.00
1379;DHT22;683;48.738;9.226;2023-08-12T10:36:10;32.10;56.70
1379;DHT22;683;48.738;9.226;2023-08-12T10:38:38;32.10;57.00
1379;DHT22;683;48.738;9.226;2023-08-12T10:41:23;32.20;56.70
1379;DHT22;683;48.738;9.226;2023-08-12T10:43:54;32.20;56.50
1379;DHT22;683;48.738;9.226;2023-08-12T10:46:23;32.10;56.90
1379;DHT22;683;48.738;9.226;2023-08-12T10:49:05;31.90;56.80
1379;DHT22;683;48.738;9.226;2023-08-12T10:51:49;31.80;56.80
1379;DHT22;683;48.738;9.226;2023-08-12T10:54:21;31.90;57.30
1379;DHT22;683;48.738;9.226;2023-08-12T10:57:07;32.00;56.40
1379;DHT22;683;48.738;9.226;2023-08-12T10:59:51;31.70;55.90
1379;DHT22;683;48.738;9.226;2023-08-12T11:02:19;31.50;56.90
1379;DHT22;683;48.738;9.226;2023-08-12T11:04:54;31.40;57.50
1379;DHT22;683;48.738;9.226;2023-08-12T11:07:28;31.30;57.20
1379;DHT22;683;48.738;9.226;2023-08-12T11:10:00;31.40;57.00
1379;DHT22;683;48.738;9.226;2023-08-12T11:12:32;31.70;56.80
1379;DHT22;683;48.738;9.226;2023-08-12T11:15:02;32.00;56.60
1379;DHT22;683;48.738;9.226;2023-08-12T11:17:33;31.90;56.80
1379;DHT22;683;48.738;9.226;2023-08-12T11:20:03;31.90;56.00
1379;DHT22;683;48.738;9.226;2023-08-12T11:22:35;31.70;55.90
1379;DHT22;683;48.738;9.226;2023-08-12T11:25:03;31.50;56.20
1379;DHT22;683;48.738;9.226;2023-08-12T11:27:39;31.70;56.50
1379;DHT22;683;48.738;9.226;2023-08-12T11:30:07;32.00;57.10
1379;DHT22;683;48.738;9.226;2023-08-12T11:32:37;32.40;56.10
1379;DHT22;683;48.738;9.226;2023-08-12T11:35:08;32.80;56.10
1379;DHT22;683;48.738;9.226;2023-08-12T11:37:36;33.00;55.30
1379;DHT22;683;48.738;9.226;2023-08-12T11:40:05;33.10;55.00
1379;DHT22;683;48.738;9.226;2023-08-12T11:42:34;33.00;54.50
1379;DHT22;683;48.738;9.226;2023-08-12T11:45:02;32.90;55.20
1379;DHT22;683;48.738;9.226;2023-08-12T11:47:33;32.80;55.20
1379;DHT22;683;48.738;9.226;2023-08-12T11:50:02;32.50;55.60
1379;DHT22;683;48.738;9.226;2023-08-12T11:52:31;32.40;57.00
1379;DHT22;683;48.738;9.226;2023-08-12T11:54:59;32.60;57.80
1379;DHT22;683;48.738;9.226;2023-08-12T11:57:26;32.90;56.20
1379;DHT22;683;48.738;9.226;2023-08-12T11:59:58;33.00;55.80
1379;DHT22;683;48.738;9.226;2023-08-12T12:02:25;33.00;54.50
1379;DHT22;683;48.738;9.226;2023-08-12T12:04:52;33.10;52.70
1379;DHT22;683;48.738;9.226;2023-08-12T12:07:20;32.80;52.20
1379;DHT22;683;48.738;9.226;2023-08-12T12:09:52;32.30;52.90
1379;DHT22;683;48.738;9.226;2023-08-12T12:12:22;31.80;54.00
1379;DHT22;683;48.738;9.226;2023-08-12T12:14:51;31.10;54.70
1379;DHT22;683;48.738;9.226;2023-08-12T12:17:21;30.40;56.10
1379;DHT22;683;48.738;9.226;2023-08-12T12:19:52;29.80;57.30
1379;DHT22;683;48.738;9.226;2023-08-12T12:22:19;29.40;58.80
1379;DHT22;683;48.738;9.226;2023-08-12T12:24:47;29.10;59.80
1379;DHT22;683;48.738;9.226;2023-08-12T12:27:19;28.60;70.10
1379;DHT22;683;48.738;9.226;2023-08-12T12:29:46;27.50;84.80
1379;DHT22;683;48.738;9.226;2023-08-12T12:32:18;26.10;94.00
1379;DHT22;683;48.738;9.226;2023-08-12T12:34:46;25.10;98.20
1379;DHT22;683;48.738;9.226;2023-08-12T12:37:13;24.40;99.90
1379;DHT22;683;48.738;9.226;2023-08-12T12:39:40;23.90;99.90
1379;DHT22;683;48.738;9.226;2023-08-12T12:42:08;23.60;99.90
1379;DHT22;683;48.738;9.226;2023-08-12T12:44:37;23.30;99.90
1379;DHT22;683;48.738;9.226;2023-08-12T12:47:04;23.00;99.90
1379;DHT22;683;48.738;9.226;2023-08-12T12:49:31;22.80;99.90
1379;DHT22;683;48.738;9.226;2023-08-12T12:51:58;22.60;99.90
1379;DHT22;683;48.738;9.226;2023-08-12T12:54:26;22.00;99.90
1379;DHT22;683;48.738;9.226;2023-08-12T12:56:53;21.60;99.90
1379;DHT22;683;48.738;9.226;2023-08-12T12:59:20;21.50;99.90
1379;DHT22;683;48.738;9.226;2023-08-12T13:01:48;21.40;99.90
1379;DHT22;683;48.738;9.226;2023-08-12T13:04:15;21.40;99.90
1379;DHT22;683;48.738;9.226;2023-08-12T13:06:42;21.30;99.90
1379;DHT22;683;48.738;9.226;2023-08-12T13:09:12;21.40;99.90
1379;DHT22;683;48.738;9.226;2023-08-12T13:11:39;21.40;99.90
1379;DHT22;683;48.738;9.226;2023-08-12T13:14:07;21.60;99.90
1379;DHT22;683;48.738;9.226;2023-08-12T13:16:35;21.70;99.90
1379;DHT22;683;48.738;9.226;2023-08-12T13:19:03;21.70;99.90
1379;DHT22;683;48.738;9.226;2023-08-12T13:21:30;21.70;99.90
1379;DHT22;683;48.738;9.226;2023-08-12T13:23:59;21.70;99.90
1379;DHT22;683;48.738;9.226;2023-08-12T13:26:29;21.60;99.90
1379;DHT22;683;48.738;9.226;2023-08-12T13:28:56;21.70;99.90
1379;DHT22;683;48.738;9.226;2023-08-12T13:31:24;21.70;99.90
1379;DHT22;683;48.738;9.226;2023-08-12T13:33:53;21.80;99.90
1379;DHT22;683;48.738;9.226;2023-08-12T13:36:22;21.80;99.90
1379;DHT22;683;48.738;9.226;2023-08-12T13:38:49;22.00;99.90
1379;DHT22;683;48.738;9.226;2023-08-12T13:41:16;21.80;99.90
1379;DHT22;683;48.738;9.226;2023-08-12T13:43:43;21.90;99.90
1379;DHT22;683;48.738;9.226;2023-08-12T13:46:11;22.20;99.90
1379;DHT22;683;48.738;9.226;2023-08-12T13:48:38;22.60;99.90
1379;DHT22;683;48.738;9.226;2023-08-12T13:51:06;23.30;99.90
1379;DHT22;683;48.738;9.226;2023-08-12T13:53:35;24.60;99.90
1379;DHT22;683;48.738;9.226;2023-08-12T13:56:02;25.00;99.90
1379;DHT22;683;48.738;9.226;2023-08-12T13:58:29;26.00;99.90
1379;DHT22;683;48.738;9.226;2023-08-12T14:00:56;27.40;99.90
1379;DHT22;683;48.738;9.226;2023-08-12T14:03:24;29.30;99.90
1379;DHT22;683;48.738;9.226;2023-08-12T14:05:51;28.80;99.90
1379;DHT22;683;48.738;9.226;2023-08-12T14:08:18;28.00;99.90
1379;DHT22;683;48.738;9.226;2023-08-12T14:10:47;27.80;99.90
1379;DHT22;683;48.738;9.226;2023-08-12T14:13:15;28.50;99.90
1379;DHT22;683;48.738;9.226;2023-08-12T14:15:43;29.30;99.90
1379;DHT22;683;48.738;9.226;2023-08-12T14:18:10;29.50;99.90
1379;DHT22;683;48.738;9.226;2023-08-12T14:20:37;30.60;99.90
1379;DHT22;683;48.738;9.226;2023-08-12T14:23:04;32.00;99.90
1379;DHT22;683;48.738;9.226;2023-08-12T14:25:31;33.10;98.10
1379;DHT22;683;48.738;9.226;2023-08-12T14:28:00;34.00;94.60
1379;DHT22;683;48.738;9.226;2023-08-12T14:30:27;35.30;90.30
1379;DHT22;683;48.738;9.226;2023-08-12T14:32:54;36.40;82.40
1379;DHT22;683;48.738;9.226;2023-08-12T14:35:22;37.60;70.20
1379;DHT22;683;48.738;9.226;2023-08-12T14:37:49;38.70;65.80
1379;DHT22;683;48.738;9.226;2023-08-12T14:40:16;39.50;59.80
1379;DHT22;683;48.738;9.226;2023-08-12T14:42:46;40.30;55.80
1379;DHT22;683;48.738;9.226;2023-08-12T14:45:15;41.60;51.20
1379;DHT22;683;48.738;9.226;2023-08-12T14:47:43;42.70;48.00
1379;DHT22;683;48.738;9.226;2023-08-12T14:50:11;43.10;46.30
1379;DHT22;683;48.738;9.226;2023-08-12T14:52:38;43.30;45.00
1379;DHT22;683;48.738;9.226;2023-08-12T14:55:06;43.30;42.30
1379;DHT22;683;48.738;9.226;2023-08-12T14:57:34;43.20;41.50
1379;DHT22;683;48.738;9.226;2023-08-12T15:00:02;43.20;41.50
1379;DHT22;683;48.738;9.226;2023-08-12T15:02:33;43.60;42.40
1379;DHT22;683;48.738;9.226;2023-08-12T15:05:01;44.00;39.00
1379;DHT22;683;48.738;9.226;2023-08-12T15:07:28;44.00;39.60
1379;DHT22;683;48.738;9.226;2023-08-12T15:09:55;44.00;41.10
1379;DHT22;683;48.738;9.226;2023-08-12T15:12:23;44.30;39.60
1379;DHT22;683;48.738;9.226;2023-08-12T15:14:51;44.30;38.40
1379;DHT22;683;48.738;9.226;2023-08-12T15:17:18;44.50;38.90
1379;DHT22;683;48.738;9.226;2023-08-12T15:19:46;44.60;38.80
1379;DHT22;683;48.738;9.226;2023-08-12T15:22:13;45.00;37.70
1379;DHT22;683;48.738;9.226;2023-08-12T15:24:41;45.30;37.00
1379;DHT22;683;48.738;9.226;2023-08-12T15:27:08;45.50;34.10
1379;DHT22;683;48.738;9.226;2023-08-12T15:29:35;43.70;36.40
1379;DHT22;683;48.738;9.226;2023-08-12T15:32:03;42.80;38.60
1379;DHT22;683;48.738;9.226;2023-08-12T15:34:30;42.90;38.70
1379;DHT22;683;48.738;9.226;2023-08-12T15:37:04;41.70;38.80
1379;DHT22;683;48.738;9.226;2023-08-12T15:39:31;39.10;42.50
1379;DHT22;683;48.738;9.226;2023-08-12T15:41:59;36.60;47.80
1379;DHT22;683;48.738;9.226;2023-08-12T15:44:26;34.70;50.20
1379;DHT22;683;48.738;9.226;2023-08-12T15:46:53;33.10;54.20
1379;DHT22;683;48.738;9.226;2023-08-12T15:49:21;32.00;56.60
1379;DHT22;683;48.738;9.226;2023-08-12T15:51:48;31.10;60.20
1379;DHT22;683;48.738;9.226;2023-08-12T15:54:16;30.50;63.00
1379;DHT22;683;48.738;9.226;2023-08-12T15:56:46;30.00;64.70
1379;DHT22;683;48.738;9.226;2023-08-12T15:59:14;29.50;65.60
1379;DHT22;683;48.738;9.226;2023-08-12T16:01:41;29.10;68.20
1379;DHT22;683;48.738;9.226;2023-08-12T16:04:09;28.80;70.20
1379;DHT22;683;48.738;9.226;2023-08-12T16:06:36;28.50;72.20
1379;DHT22;683;48.738;9.226;2023-08-12T16:09:03;28.30;74.20
1379;DHT22;683;48.738;9.226;2023-08-12T16:11:32;27.80;78.20
1379;DHT22;683;48.738;9.226;2023-08-12T16:13:59;27.50;82.70
1379;DHT22;683;48.738;9.226;2023-08-12T16:16:26;27.10;87.00
1379;DHT22;683;48.738;9.226;2023-08-12T16:18:54;26.90;90.90
1379;DHT22;683;48.738;9.226;2023-08-12T16:21:21;26.50;95.20
1379;DHT22;683;48.738;9.226;2023-08-12T16:23:48;26.00;99.50